Weather observations for the past three days for
Wichita Falls, Sheppard Air Force Base
Metric (Imperial)
Date Time (cdt) Wind (kph) Vis. (km) Weather Sky Cond. Temperature (ºC) Relative Humidity Wind Chill (°C) Heat Index (°C) Pressure Precipitation (cm)
Air Dwpt 6 hour altimeter (cm) sea level (mb) 1 hr 3 hr 6 hr
Max. Min.
04 17:52 S 33 G 59 16.09 Partly Cloudy and Breezy SCT250 30 16.1 43% 30 75.21 1001.4
04 16:52 S 39 G 52 16.09 Partly Cloudy and Breezy SCT250 31.1 16.7 42% 31 75.21 1001.4
04 15:52 S 43 G 54 16.09 Fair and Windy CLR 31.1 15.6 39% 31 75.31 1002.7
04 14:52 S 35 G 50 16.09 Fair and Breezy CLR 30 15.6 42% 30 75.41 1004.1
04 13:52 S 31 G 50 16.09 Fair CLR 27.8 15 46% 28 75.49 1005.3
04 12:52 SW 31 G 50 16.09 Fair CLR 26.7 14.4 26.7 15 47% 27 75.59 1006.4
04 11:52 S 35 G 48 16.09 Fair and Breezy CLR 24.4 13.3 50% 26 75.67 1007.5
04 10:52 S 39 G 52 16.09 Fair and Breezy CLR 22.2 12.8 55% 75.72 1008.3
04 09:52 S 41 G 57 16.09 Fair and Breezy CLR 21.1 11.7 55% 75.69 1008.3
04 08:52 S 39 G 48 16.09 Fair and Breezy CLR 18.9 11.1 61% 75.74 1008.6
04 07:52 S 24 16.09 Fair CLR 16.1 9.4 65% 75.74 1008.6
04 06:52 S 19 16.09 Fair CLR 15.6 8.9 18.3 15.6 65% 75.72 1008.5
04 05:52 S 26 16.09 Fair CLR 16.1 8.9 63% 75.74 1008.6
04 04:52 S 22 16.09 Fair CLR 16.1 8.9 63% 75.77 1009.1
04 03:52 S 26 16.09 Fair CLR 16.7 8.3 58% 75.79 1009.2
04 02:52 S 24 16.09 Fair CLR 17.2 7.8 54% 75.84 1010.0
04 01:52 S 22 16.09 Fair CLR 17.2 7.8 54% 75.92 1010.8
04 00:52 S 24 16.09 Fair CLR 18.3 7.2 26.1 18.3 49% 75.95 1011.4
03 23:52 S 24 16.09 Fair CLR 18.9 6.7 45% 76 1011.8
03 22:52 S 24 16.09 Fair CLR 20 6.1 40% 76.02 1012.5
03 21:52 S 20 16.09 Fair CLR 20.6 6.7 41% 76.02 1012.6
03 20:52 S 22 16.09 Fair CLR 21.1 7.2 41% 76 1012.1
03 19:52 S 24 16.09 Fair CLR 23.3 5.6 32% 76 1012.2
03 18:52 S 35 G 48 16.09 Fair and Breezy CLR 26.1 5.6 28.3 26.1 27% 26 76.02 1012.6
03 17:52 S 33 G 52 16.09 Fair and Breezy CLR 27.2 5.6 25% 26 76.05 1012.8
03 16:52 S 31 G 54 16.09 Fair CLR 27.8 6.1 25% 27 76.07 1013.4
03 15:52 S 41 G 50 16.09 Fair and Breezy CLR 28.3 6.1 24% 27 76.15 1014.3
03 14:52 SW 30 G 43 16.09 Fair CLR 28.3 3.9 21% 27 76.25 1015.5
03 13:52 SW 22 G 41 16.09 Partly Cloudy SCT095 27.8 5 23% 27 76.3 1016.3
03 12:52 SW 30 G 50 16.09 Fair CLR 26.7 6.7 27.2 12.2 28% 26 76.4 1017.6
03 11:52 SW 30 16.09 Fair CLR 26.1 8.3 32% 26 76.45 1018.4
03 10:52 W 31 G 48 16.09 Fair CLR 24.4 7.8 35% 25 76.5 1019.0
03 09:52 SW 28 16.09 Fair CLR 21.7 8.3 42% 76.5 1019.2
03 08:52 W 28 16.09 Fair CLR 18.3 8.3 52% 76.48 1018.9
03 07:52 SW 24 16.09 Fair CLR 14.4 8.3 67% 76.48 1018.7
03 06:52 SW 20 16.09 Fair CLR 12.2 7.8 16.1 12.2 75% 76.43 1018.1
03 05:52 SW 20 16.09 Fair CLR 12.8 7.8 72% 76.4 1017.6
03 04:52 SW 20 16.09 Fair CLR 13.3 8.3 72% 76.4 1017.6
03 03:52 SW 20 16.09 Fair CLR 13.9 8.3 69% 76.38 1017.5
03 02:52 SW 20 16.09 Fair CLR 15 7.8 62% 76.4 1017.6
03 01:52 SW 19 16.09 Fair CLR 16.1 7.2 56% 76.43 1018.0
03 00:52 SW 17 16.09 Fair CLR 15 7.2 24.4 13.3 60% 76.43 1017.9
02 23:52 SW 20 16.09 Fair CLR 16.7 7.2 54% 76.4 1017.8
02 22:52 SW 17 16.09 Fair CLR 13.9 6.7 62% 76.4 1017.8
02 21:52 S 17 16.09 Fair CLR 13.9 7.2 64% 76.38 1017.6
02 20:52 S 13 16.09 Fair CLR 16.7 5.6 48% 76.35 1017.2
02 19:52 S 13 16.09 Fair CLR 20.6 6.1 39% 76.33 1016.9
02 18:52 S 13 16.09 Fair CLR 24.4 5 26.1 22.2 29% 25 76.33 1017.0
02 17:52 S 17 16.09 Fair CLR 25.6 3.3 24% 25 76.35 1017.1
02 16:52 Vrbl 11 16.09 Partly Cloudy SCT100 26.1 3.3 23% 26 76.38 1017.6
02 15:52 Calm 16.09 A Few Clouds FEW080 23.3 3.9 28% 76.45 1018.6
02 14:52 Vrbl 7 16.09 Fair CLR 24.4 5.6 30% 25 76.5 1019.1
02 13:52 N 15 16.09 A Few Clouds FEW065 24.4 6.7 32% 25 76.53 1019.6
02 12:52 W 11 16.09 Fair CLR 23.9 6.7 23.9 7.8 33% 25 76.61 1020.6
02 11:52 NW 9 16.09 Fair CLR 22.2 6.7 37% 76.66 1021.2
02 10:52 W 15 G 26 16.09 Fair CLR 21.1 7.2 41% 76.66 1021.3
02 09:52 W 13 16.09 Fair CLR 19.4 6.7 44% 76.66 1021.2
02 08:52 Calm 16.09 Fair CLR 15 8.9 67% 76.66 1021.4
02 07:52 NW 6 16.09 Fair CLR 11.1 7.8 80% 76.63 1021.2
02 06:52 NW 11 16.09 Fair CLR 7.8 5.6 13.9 7.2 86% 6 76.58 1020.5
02 05:52 Calm 16.09 Fair CLR 10 6.1 77% 76.5 1019.5
02 04:52 Calm 16.09 Fair CLR 10.6 6.1 74% 76.48 1019.1
02 03:52 Calm 16.09 Fair CLR 11.1 6.1 72% 76.45 1018.8
02 02:52 Calm 16.09 Fair CLR 12.8 6.1 64% 76.5 1019.1
02 01:52 Calm 16.09 Fair CLR 13.3 6.7 65% 76.5 1019.2
02 00:52 E 6 16.09 Fair CLR 13.3 6.7 20 13.3 65% 76.5 1019.2
01 23:52 E 6 16.09 Fair CLR 15 6.7 58% 76.48 1018.9
01 22:52 E 6 16.09 Fair CLR 15 7.8 62% 76.45 1018.9
01 21:52 E 7 16.09 Fair CLR 15.6 7.2 58% 76.4 1018.2
01 20:52 NE 9 16.09 Fair CLR 16.1 7.8 58% 76.33 1017.1
01 19:52 NE 13 16.09 Fair CLR 18.3 6.7 47% 76.28 1016.5
01 18:52 NE 15 16.09 Fair CLR 20 7.2 21.1 18.9 44% 76.25 1015.9
Date Time (cdt) Wind (kph) Vis. (km) Weather Sky Cond. Air Dwpt Max. Min. Relative Humidity Wind Chill (°C) Heat Index (°C) altimeter (cm) sea level (mb) 1 hr 3 hr 6 hr
6 hour
Temperature (ºC) Pressure Precipitation (cm)